sensor_id;sensor_type;location;lat;lon;timestamp;pressure;altitude;pressure_sealevel;temperature;humidity
45129;BME280;35512;56.312;101.728;2023-02-11T00:01:41;97472.88;;;-20.61;74.98
45129;BME280;35512;56.312;101.728;2023-02-11T00:04:10;97482.34;;;-20.62;74.84
45129;BME280;35512;56.312;101.728;2023-02-11T00:06:39;97498.16;;;-20.56;74.64
45129;BME280;35512;56.312;101.728;2023-02-11T00:09:09;97495.19;;;-20.62;74.92
45129;BME280;35512;56.312;101.728;2023-02-11T00:11:40;97504.38;;;-20.59;74.89
45129;BME280;35512;56.312;101.728;2023-02-11T00:14:10;97510.47;;;-20.60;74.84
45129;BME280;35512;56.312;101.728;2023-02-11T00:16:39;97518.16;;;-20.60;74.86
45129;BME280;35512;56.312;101.728;2023-02-11T00:19:08;97532.50;;;-20.57;74.90
45129;BME280;35512;56.312;101.728;2023-02-11T00:21:37;97527.34;;;-20.57;74.93
45129;BME280;35512;56.312;101.728;2023-02-11T00:24:06;97538.84;;;-20.52;74.89
45129;BME280;35512;56.312;101.728;2023-02-11T00:26:35;97533.97;;;-20.55;74.83
45129;BME280;35512;56.312;101.728;2023-02-11T00:29:04;97539.53;;;-20.60;74.79
45129;BME280;35512;56.312;101.728;2023-02-11T00:31:33;97533.31;;;-20.67;74.58
45129;BME280;35512;56.312;101.728;2023-02-11T00:34:05;97537.00;;;-20.69;74.67
45129;BME280;35512;56.312;101.728;2023-02-11T00:36:34;97538.91;;;-20.71;74.64
45129;BME280;35512;56.312;101.728;2023-02-11T00:39:03;97542.97;;;-20.79;74.50
45129;BME280;35512;56.312;101.728;2023-02-11T00:41:32;97548.50;;;-20.83;74.56
45129;BME280;35512;56.312;101.728;2023-02-11T00:44:02;97560.00;;;-20.87;74.45
45129;BME280;35512;56.312;101.728;2023-02-11T00:46:31;97564.84;;;-20.94;74.58
45129;BME280;35512;56.312;101.728;2023-02-11T00:49:01;97564.34;;;-20.98;74.86
45129;BME280;35512;56.312;101.728;2023-02-11T00:51:30;97569.56;;;-20.99;74.58
45129;BME280;35512;56.312;101.728;2023-02-11T00:53:59;97568.13;;;-21.02;74.75
45129;BME280;35512;56.312;101.728;2023-02-11T00:56:28;97565.81;;;-21.05;74.69
45129;BME280;35512;56.312;101.728;2023-02-11T00:58:57;97568.50;;;-21.06;74.47
45129;BME280;35512;56.312;101.728;2023-02-11T01:01:26;97560.28;;;-21.10;74.49
45129;BME280;35512;56.312;101.728;2023-02-11T01:03:55;97561.34;;;-21.03;74.68
45129;BME280;35512;56.312;101.728;2023-02-11T01:06:24;97572.84;;;-20.97;74.59
45129;BME280;35512;56.312;101.728;2023-02-11T01:08:53;97574.06;;;-20.91;74.95
45129;BME280;35512;56.312;101.728;2023-02-11T01:11:22;97581.47;;;-20.88;74.58
45129;BME280;35512;56.312;101.728;2023-02-11T01:13:51;97580.25;;;-20.84;74.75
45129;BME280;35512;56.312;101.728;2023-02-11T01:16:22;97591.22;;;-20.72;74.89
45129;BME280;35512;56.312;101.728;2023-02-11T01:18:53;97584.53;;;-20.65;74.97
45129;BME280;35512;56.312;101.728;2023-02-11T01:21:22;97599.00;;;-20.54;74.75
45129;BME280;35512;56.312;101.728;2023-02-11T01:23:51;97598.75;;;-20.51;74.90
45129;BME280;35512;56.312;101.728;2023-02-11T01:26:20;97594.28;;;-20.49;75.04
45129;BME280;35512;56.312;101.728;2023-02-11T01:28:50;97615.63;;;-20.29;75.04
45129;BME280;35512;56.312;101.728;2023-02-11T01:31:19;97619.34;;;-20.14;75.02
45129;BME280;35512;56.312;101.728;2023-02-11T01:33:48;97618.00;;;-19.98;75.05
45129;BME280;35512;56.312;101.728;2023-02-11T01:36:17;97632.22;;;-19.76;75.42
45129;BME280;35512;56.312;101.728;2023-02-11T01:38:46;97625.88;;;-19.16;76.19
45129;BME280;35512;56.312;101.728;2023-02-11T01:41:15;97625.56;;;-17.89;77.95
45129;BME280;35512;56.312;101.728;2023-02-11T01:43:46;97627.44;;;-16.62;78.50
45129;BME280;35512;56.312;101.728;2023-02-11T01:46:27;97631.66;;;-15.48;78.59
45129;BME280;35512;56.312;101.728;2023-02-11T01:49:06;97635.09;;;-14.53;78.74
45129;BME280;35512;56.312;101.728;2023-02-11T01:51:45;97635.81;;;-13.83;77.38
45129;BME280;35512;56.312;101.728;2023-02-11T01:54:19;97630.97;;;-13.86;75.87
45129;BME280;35512;56.312;101.728;2023-02-11T01:57:10;97636.47;;;-14.42;74.45
45129;BME280;35512;56.312;101.728;2023-02-11T02:03:38;97640.50;;;-14.39;75.58
45129;BME280;35512;56.312;101.728;2023-02-11T02:06:05;97653.56;;;-13.71;76.12
45129;BME280;35512;56.312;101.728;2023-02-11T02:08:41;97642.09;;;-13.17;76.18
45129;BME280;35512;56.312;101.728;2023-02-11T02:11:11;97652.84;;;-12.54;76.13
45129;BME280;35512;56.312;101.728;2023-02-11T02:13:41;97657.00;;;-11.88;76.29
45129;BME280;35512;56.312;101.728;2023-02-11T02:16:12;97655.56;;;-10.99;77.64
45129;BME280;35512;56.312;101.728;2023-02-11T02:40:44;97671.19;;;-7.55;76.09
45129;BME280;35512;56.312;101.728;2023-02-11T02:43:14;97676.22;;;-6.91;75.35
45129;BME280;35512;56.312;101.728;2023-02-11T02:45:45;97675.09;;;-6.28;74.92
45129;BME280;35512;56.312;101.728;2023-02-11T02:48:30;97687.47;;;-5.51;75.81
45129;BME280;35512;56.312;101.728;2023-02-11T02:53:48;97684.66;;;-4.49;73.48
45129;BME280;35512;56.312;101.728;2023-02-11T03:02:24;97683.63;;;-3.45;72.37
45129;BME280;35512;56.312;101.728;2023-02-11T03:07:54;97697.00;;;-2.95;72.02
45129;BME280;35512;56.312;101.728;2023-02-11T03:10:35;97671.94;;;-2.93;72.29
45129;BME280;35512;56.312;101.728;2023-02-11T03:13:06;97690.47;;;-2.48;71.92
45129;BME280;35512;56.312;101.728;2023-02-11T03:15:39;97677.41;;;-2.77;69.64
45129;BME280;35512;56.312;101.728;2023-02-11T03:18:14;97694.00;;;-3.04;69.99
45129;BME280;35512;56.312;101.728;2023-02-11T03:20:47;97703.75;;;-3.04;70.59
45129;BME280;35512;56.312;101.728;2023-02-11T03:26:00;97685.94;;;-2.53;71.22
45129;BME280;35512;56.312;101.728;2023-02-11T03:29:00;97712.69;;;-2.27;69.51
45129;BME280;35512;56.312;101.728;2023-02-11T03:31:28;97719.69;;;-2.38;69.24
45129;BME280;35512;56.312;101.728;2023-02-11T03:34:09;97722.94;;;-1.87;70.87
45129;BME280;35512;56.312;101.728;2023-02-11T03:36:59;97728.84;;;-1.14;70.94
45129;BME280;35512;56.312;101.728;2023-02-11T03:39:34;97712.56;;;-0.43;70.63
45129;BME280;35512;56.312;101.728;2023-02-11T03:42:05;97734.25;;;0.07;69.87
45129;BME280;35512;56.312;101.728;2023-02-11T03:44:45;97727.34;;;0.11;68.54
45129;BME280;35512;56.312;101.728;2023-02-11T03:47:19;97711.78;;;-0.38;67.79
45129;BME280;35512;56.312;101.728;2023-02-11T03:49:51;97713.59;;;-0.44;68.50
45129;BME280;35512;56.312;101.728;2023-02-11T03:52:23;97721.00;;;0.12;68.98
45129;BME280;35512;56.312;101.728;2023-02-11T03:54:55;97736.47;;;0.57;68.52
45129;BME280;35512;56.312;101.728;2023-02-11T03:57:26;97713.59;;;0.56;68.23
45129;BME280;35512;56.312;101.728;2023-02-11T03:59:57;97740.72;;;0.78;68.05
45129;BME280;35512;56.312;101.728;2023-02-11T04:02:30;97748.41;;;1.21;68.28
45129;BME280;35512;56.312;101.728;2023-02-11T04:05:01;97765.16;;;1.27;67.11
45129;BME280;35512;56.312;101.728;2023-02-11T04:07:31;97737.00;;;0.59;66.67
45129;BME280;35512;56.312;101.728;2023-02-11T04:10:01;97735.66;;;0.46;67.23
45129;BME280;35512;56.312;101.728;2023-02-11T04:12:30;97739.38;;;0.50;68.07
45129;BME280;35512;56.312;101.728;2023-02-11T04:14:59;97740.44;;;0.95;68.18
45129;BME280;35512;56.312;101.728;2023-02-11T04:17:30;97768.38;;;1.29;67.11
45129;BME280;35512;56.312;101.728;2023-02-11T04:19:59;97774.78;;;1.17;66.67
45129;BME280;35512;56.312;101.728;2023-02-11T04:22:30;97785.38;;;1.38;67.67
45129;BME280;35512;56.312;101.728;2023-02-11T04:25:00;97778.41;;;1.63;67.91
45129;BME280;35512;56.312;101.728;2023-02-11T04:27:29;97784.44;;;1.94;67.77
45129;BME280;35512;56.312;101.728;2023-02-11T04:29:58;97763.44;;;1.82;67.56
45129;BME280;35512;56.312;101.728;2023-02-11T04:32:29;97791.56;;;2.14;67.88
45129;BME280;35512;56.312;101.728;2023-02-11T04:34:58;97793.97;;;2.06;67.41
45129;BME280;35512;56.312;101.728;2023-02-11T04:37:30;97794.75;;;2.16;67.33
45129;BME280;35512;56.312;101.728;2023-02-11T04:39:58;97793.50;;;1.93;67.84
45129;BME280;35512;56.312;101.728;2023-02-11T04:42:28;97799.34;;;2.00;68.58
45129;BME280;35512;56.312;101.728;2023-02-11T04:44:57;97784.94;;;2.01;68.73
45129;BME280;35512;56.312;101.728;2023-02-11T04:47:25;97792.78;;;2.38;68.88
45129;BME280;35512;56.312;101.728;2023-02-11T04:49:54;97789.97;;;2.13;68.59
45129;BME280;35512;56.312;101.728;2023-02-11T04:52:23;97799.88;;;1.97;68.25
45129;BME280;35512;56.312;101.728;2023-02-11T04:54:52;97803.66;;;1.76;68.93
45129;BME280;35512;56.312;101.728;2023-02-11T04:57:21;97802.88;;;1.70;68.98
45129;BME280;35512;56.312;101.728;2023-02-11T04:59:50;97781.56;;;1.75;69.33
45129;BME280;35512;56.312;101.728;2023-02-11T05:02:19;97807.59;;;2.04;69.79
45129;BME280;35512;56.312;101.728;2023-02-11T05:04:49;97789.84;;;1.74;68.28
45129;BME280;35512;56.312;101.728;2023-02-11T05:07:18;97790.47;;;1.24;69.02
45129;BME280;35512;56.312;101.728;2023-02-11T05:09:47;97802.72;;;1.15;68.88
45129;BME280;35512;56.312;101.728;2023-02-11T05:12:16;97816.53;;;1.27;69.88
45129;BME280;35512;56.312;101.728;2023-02-11T05:14:45;97813.47;;;1.96;70.38
45129;BME280;35512;56.312;101.728;2023-02-11T05:17:14;97815.81;;;2.13;69.50
45129;BME280;35512;56.312;101.728;2023-02-11T05:19:44;97814.31;;;1.86;68.25
45129;BME280;35512;56.312;101.728;2023-02-11T05:22:13;97809.69;;;2.12;69.89
45129;BME280;35512;56.312;101.728;2023-02-11T05:24:42;97823.56;;;2.09;68.16
45129;BME280;35512;56.312;101.728;2023-02-11T05:27:11;97819.31;;;2.03;69.14
45129;BME280;35512;56.312;101.728;2023-02-11T05:29:40;97805.97;;;2.03;69.42
45129;BME280;35512;56.312;101.728;2023-02-11T05:32:08;97814.69;;;2.29;69.33
45129;BME280;35512;56.312;101.728;2023-02-11T05:34:37;97811.47;;;2.77;70.18
45129;BME280;35512;56.312;101.728;2023-02-11T05:37:06;97833.06;;;2.31;69.15
45129;BME280;35512;56.312;101.728;2023-02-11T05:39:35;97825.53;;;2.43;70.43
45129;BME280;35512;56.312;101.728;2023-02-11T05:42:04;97825.44;;;2.64;70.11
45129;BME280;35512;56.312;101.728;2023-02-11T05:44:33;97818.06;;;2.90;70.09
45129;BME280;35512;56.312;101.728;2023-02-11T05:47:03;97818.44;;;2.73;69.04
45129;BME280;35512;56.312;101.728;2023-02-11T05:49:32;97835.69;;;2.86;69.50
45129;BME280;35512;56.312;101.728;2023-02-11T05:52:01;97834.34;;;2.88;68.96
45129;BME280;35512;56.312;101.728;2023-02-11T05:54:29;97832.75;;;2.43;68.19
45129;BME280;35512;56.312;101.728;2023-02-11T05:56:58;97838.22;;;2.12;68.55
45129;BME280;35512;56.312;101.728;2023-02-11T05:59:27;97841.38;;;2.74;69.95
45129;BME280;35512;56.312;101.728;2023-02-11T06:02:00;97830.41;;;3.20;69.38
45129;BME280;35512;56.312;101.728;2023-02-11T06:04:30;97836.31;;;3.47;69.05
45129;BME280;35512;56.312;101.728;2023-02-11T06:06:58;97838.66;;;2.79;66.89
45129;BME280;35512;56.312;101.728;2023-02-11T06:09:27;97853.25;;;2.52;68.06
45129;BME280;35512;56.312;101.728;2023-02-11T06:11:56;97850.66;;;2.32;67.72
45129;BME280;35512;56.312;101.728;2023-02-11T06:14:25;97850.28;;;1.83;67.99
45129;BME280;35512;56.312;101.728;2023-02-11T06:16:54;97844.75;;;1.44;69.24
45129;BME280;35512;56.312;101.728;2023-02-11T06:19:23;97842.59;;;1.61;69.79
45129;BME280;35512;56.312;101.728;2023-02-11T06:21:52;97849.25;;;1.59;70.01
45129;BME280;35512;56.312;101.728;2023-02-11T06:24:21;97859.34;;;1.62;70.11
45129;BME280;35512;56.312;101.728;2023-02-11T06:27:10;97858.31;;;0.96;69.09
45129;BME280;35512;56.312;101.728;2023-02-11T06:29:39;97839.69;;;1.01;71.06
45129;BME280;35512;56.312;101.728;2023-02-11T06:32:08;97840.22;;;1.55;71.16
45129;BME280;35512;56.312;101.728;2023-02-11T06:34:57;97850.28;;;1.83;70.12
45129;BME280;35512;56.312;101.728;2023-02-11T06:37:26;97855.84;;;1.92;69.49
45129;BME280;35512;56.312;101.728;2023-02-11T06:39:55;97851.88;;;1.74;69.35
45129;BME280;35512;56.312;101.728;2023-02-11T06:42:25;97855.09;;;1.66;69.19
45129;BME280;35512;56.312;101.728;2023-02-11T06:44:54;97829.84;;;1.27;69.47
45129;BME280;35512;56.312;101.728;2023-02-11T06:47:22;97846.03;;;1.57;70.40
45129;BME280;35512;56.312;101.728;2023-02-11T06:49:51;97858.25;;;1.89;70.95
45129;BME280;35512;56.312;101.728;2023-02-11T06:52:20;97840.09;;;2.06;70.07
45129;BME280;35512;56.312;101.728;2023-02-11T06:54:49;97857.16;;;1.95;69.46
45129;BME280;35512;56.312;101.728;2023-02-11T06:57:18;97852.94;;;1.73;69.39
45129;BME280;35512;56.312;101.728;2023-02-11T06:59:47;97867.88;;;1.69;69.07
45129;BME280;35512;56.312;101.728;2023-02-11T07:02:16;97877.22;;;1.56;69.43
45129;BME280;35512;56.312;101.728;2023-02-11T07:04:48;97876.94;;;1.27;69.36
45129;BME280;35512;56.312;101.728;2023-02-11T07:07:17;97866.97;;;0.50;68.81
45129;BME280;35512;56.312;101.728;2023-02-11T07:09:46;97862.63;;;0.23;70.63
45129;BME280;35512;56.312;101.728;2023-02-11T07:12:15;97884.50;;;-0.07;70.92
45129;BME280;35512;56.312;101.728;2023-02-11T07:14:43;97871.56;;;-1.06;70.98
45129;BME280;35512;56.312;101.728;2023-02-11T07:17:12;97877.91;;;-1.79;71.47
45129;BME280;35512;56.312;101.728;2023-02-11T07:19:41;97884.50;;;-3.06;71.75
45129;BME280;35512;56.312;101.728;2023-02-11T07:22:10;97884.28;;;-4.50;71.99
45129;BME280;35512;56.312;101.728;2023-02-11T07:24:39;97895.25;;;-5.98;73.11
45129;BME280;35512;56.312;101.728;2023-02-11T07:27:08;97902.97;;;-6.98;74.21
45129;BME280;35512;56.312;101.728;2023-02-11T07:29:37;97891.31;;;-7.92;74.78
45129;BME280;35512;56.312;101.728;2023-02-11T07:32:06;97890.69;;;-8.80;74.85
45129;BME280;35512;56.312;101.728;2023-02-11T07:34:35;97907.34;;;-9.35;76.12
45129;BME280;35512;56.312;101.728;2023-02-11T07:37:04;97900.19;;;-9.68;76.84
45129;BME280;35512;56.312;101.728;2023-02-11T07:39:33;97885.31;;;-10.15;76.82
45129;BME280;35512;56.312;101.728;2023-02-11T07:42:02;97911.09;;;-10.41;76.85
45129;BME280;35512;56.312;101.728;2023-02-11T07:44:31;97902.97;;;-10.52;77.80
45129;BME280;35512;56.312;101.728;2023-02-11T07:47:00;97900.94;;;-10.85;77.78
45129;BME280;35512;56.312;101.728;2023-02-11T07:49:29;97903.38;;;-11.06;77.67
45129;BME280;35512;56.312;101.728;2023-02-11T07:51:58;97914.00;;;-11.07;78.10
45129;BME280;35512;56.312;101.728;2023-02-11T07:54:27;97909.09;;;-11.17;78.01
45129;BME280;35512;56.312;101.728;2023-02-11T07:56:56;97909.53;;;-11.35;78.18
45129;BME280;35512;56.312;101.728;2023-02-11T07:59:26;97914.28;;;-11.39;78.57
45129;BME280;35512;56.312;101.728;2023-02-11T08:01:55;97922.38;;;-11.33;78.41
45129;BME280;35512;56.312;101.728;2023-02-11T08:04:25;97909.91;;;-11.38;78.01
45129;BME280;35512;56.312;101.728;2023-02-11T08:06:54;97916.91;;;-11.39;78.71
45129;BME280;35512;56.312;101.728;2023-02-11T08:09:26;97924.97;;;-10.33;80.10
45129;BME280;35512;56.312;101.728;2023-02-11T08:11:54;97931.31;;;-8.24;81.52
45129;BME280;35512;56.312;101.728;2023-02-11T08:14:23;97927.22;;;-6.45;80.31
45129;BME280;35512;56.312;101.728;2023-02-11T08:16:54;97909.38;;;-5.32;77.63
45129;BME280;35512;56.312;101.728;2023-02-11T08:19:23;97916.38;;;-4.41;76.00
45129;BME280;35512;56.312;101.728;2023-02-11T08:21:55;97903.56;;;-3.61;75.54
45129;BME280;35512;56.312;101.728;2023-02-11T08:24:24;97931.88;;;-2.87;74.22
45129;BME280;35512;56.312;101.728;2023-02-11T08:26:53;97933.59;;;-2.30;74.32
45129;BME280;35512;56.312;101.728;2023-02-11T08:29:22;97922.66;;;-1.99;73.10
45129;BME280;35512;56.312;101.728;2023-02-11T08:31:51;97935.97;;;-1.94;72.34
45129;BME280;35512;56.312;101.728;2023-02-11T08:34:21;97944.78;;;-1.89;72.91
45129;BME280;35512;56.312;101.728;2023-02-11T08:36:50;97937.59;;;-2.10;71.71
45129;BME280;35512;56.312;101.728;2023-02-11T08:39:21;97949.97;;;-2.33;71.79
45129;BME280;35512;56.312;101.728;2023-02-11T08:41:52;97952.91;;;-2.29;72.54
45129;BME280;35512;56.312;101.728;2023-02-11T08:44:22;97942.34;;;-2.12;73.29
45129;BME280;35512;56.312;101.728;2023-02-11T08:46:52;97952.97;;;-1.90;72.69
45129;BME280;35512;56.312;101.728;2023-02-11T08:49:21;97942.75;;;-2.38;72.25
45129;BME280;35512;56.312;101.728;2023-02-11T08:51:50;97961.19;;;-2.43;73.06
45129;BME280;35512;56.312;101.728;2023-02-11T08:54:20;97961.75;;;-2.58;72.62
45129;BME280;35512;56.312;101.728;2023-02-11T08:56:50;97964.94;;;-2.73;73.50
45129;BME280;35512;56.312;101.728;2023-02-11T08:59:20;97960.84;;;-3.09;72.74
45129;BME280;35512;56.312;101.728;2023-02-11T09:01:50;97952.94;;;-3.62;72.36
45129;BME280;35512;56.312;101.728;2023-02-11T09:04:20;97948.16;;;-4.00;73.08
45129;BME280;35512;56.312;101.728;2023-02-11T09:06:49;97977.28;;;-4.19;72.54
45129;BME280;35512;56.312;101.728;2023-02-11T09:09:18;97966.31;;;-4.70;73.00
45129;BME280;35512;56.312;101.728;2023-02-11T09:11:47;97991.22;;;-4.84;73.00
45129;BME280;35512;56.312;101.728;2023-02-11T09:14:19;97983.72;;;-5.30;72.96
45129;BME280;35512;56.312;101.728;2023-02-11T09:16:50;97981.09;;;-5.67;72.71
45129;BME280;35512;56.312;101.728;2023-02-11T09:19:19;97993.59;;;-5.99;72.48
45129;BME280;35512;56.312;101.728;2023-02-11T09:21:48;97984.53;;;-6.54;72.06
45129;BME280;35512;56.312;101.728;2023-02-11T09:24:17;97996.97;;;-7.13;71.73
45129;BME280;35512;56.312;101.728;2023-02-11T09:26:46;97988.78;;;-8.09;72.25
45129;BME280;35512;56.312;101.728;2023-02-11T09:29:17;97990.91;;;-9.20;72.51
45129;BME280;35512;56.312;101.728;2023-02-11T09:31:46;98011.09;;;-10.19;74.38
45129;BME280;35512;56.312;101.728;2023-02-11T09:34:15;98008.97;;;-11.01;75.69
45129;BME280;35512;56.312;101.728;2023-02-11T09:36:44;98016.47;;;-11.50;77.01
45129;BME280;35512;56.312;101.728;2023-02-11T09:39:16;98033.09;;;-11.96;77.40
45129;BME280;35512;56.312;101.728;2023-02-11T09:44:27;98037.34;;;-12.71;78.15
45129;BME280;35512;56.312;101.728;2023-02-11T09:46:59;98036.56;;;-13.03;78.32
45129;BME280;35512;56.312;101.728;2023-02-11T09:49:38;98041.25;;;-13.30;78.71
45129;BME280;35512;56.312;101.728;2023-02-11T09:55:00;98042.41;;;-13.72;79.14
45129;BME280;35512;56.312;101.728;2023-02-11T09:57:35;98011.84;;;-14.18;78.69
45129;BME280;35512;56.312;101.728;2023-02-11T10:11:31;98050.19;;;-14.69;79.26
45129;BME280;35512;56.312;101.728;2023-02-11T10:22:46;98060.81;;;-15.05;79.33
45129;BME280;35512;56.312;101.728;2023-02-11T10:27:49;98052.84;;;-15.20;80.04
45129;BME280;35512;56.312;101.728;2023-02-11T10:30:42;98065.00;;;-15.21;80.15
45129;BME280;35512;56.312;101.728;2023-02-11T10:36:07;98070.00;;;-15.27;80.08
45129;BME280;35512;56.312;101.728;2023-02-11T10:38:38;98064.97;;;-15.29;79.72
45129;BME280;35512;56.312;101.728;2023-02-11T10:41:14;98040.13;;;-15.48;80.32
45129;BME280;35512;56.312;101.728;2023-02-11T10:43:45;98068.66;;;-15.40;80.34
45129;BME280;35512;56.312;101.728;2023-02-11T10:46:19;98035.84;;;-15.66;80.30
45129;BME280;35512;56.312;101.728;2023-02-11T10:48:52;98040.03;;;-15.73;80.16
45129;BME280;35512;56.312;101.728;2023-02-11T10:51:25;98078.94;;;-15.56;80.32
45129;BME280;35512;56.312;101.728;2023-02-11T10:56:36;98057.31;;;-15.82;80.46
45129;BME280;35512;56.312;101.728;2023-02-11T10:59:27;98077.09;;;-15.72;80.33
45129;BME280;35512;56.312;101.728;2023-02-11T11:02:04;98080.16;;;-15.77;80.27
45129;BME280;35512;56.312;101.728;2023-02-11T11:04:41;98083.06;;;-15.80;80.21
45129;BME280;35512;56.312;101.728;2023-02-11T11:07:19;98084.47;;;-15.86;80.47
45129;BME280;35512;56.312;101.728;2023-02-11T11:10:04;98078.13;;;-15.91;80.30
45129;BME280;35512;56.312;101.728;2023-02-11T11:12:47;98082.69;;;-15.93;80.35
45129;BME280;35512;56.312;101.728;2023-02-11T11:15:20;98088.34;;;-15.90;80.42
45129;BME280;35512;56.312;101.728;2023-02-11T11:18:07;98089.97;;;-15.89;80.46
45129;BME280;35512;56.312;101.728;2023-02-11T11:20:58;98095.16;;;-15.89;80.18
45129;BME280;35512;56.312;101.728;2023-02-11T11:23:31;98090.63;;;-15.87;80.42
45129;BME280;35512;56.312;101.728;2023-02-11T11:26:11;98085.44;;;-15.87;80.42
45129;BME280;35512;56.312;101.728;2023-02-11T11:28:41;98091.13;;;-15.83;79.89
45129;BME280;35512;56.312;101.728;2023-02-11T11:31:21;98089.66;;;-15.86;79.95
45129;BME280;35512;56.312;101.728;2023-02-11T11:33:54;98097.94;;;-15.82;80.01
45129;BME280;35512;56.312;101.728;2023-02-11T11:36:38;98091.28;;;-15.85;79.88
45129;BME280;35512;56.312;101.728;2023-02-11T11:39:26;98100.38;;;-15.80;79.91
45129;BME280;35512;56.312;101.728;2023-02-11T11:42:12;98098.28;;;-15.77;79.77
45129;BME280;35512;56.312;101.728;2023-02-11T11:44:59;98106.25;;;-15.70;79.83
45129;BME280;35512;56.312;101.728;2023-02-11T11:50:24;98099.28;;;-15.70;79.28
45129;BME280;35512;56.312;101.728;2023-02-11T11:56:05;98113.06;;;-15.61;79.20
45129;BME280;35512;56.312;101.728;2023-02-11T11:58:37;98110.78;;;-15.64;79.11
45129;BME280;35512;56.312;101.728;2023-02-11T12:01:14;98106.72;;;-15.67;79.06
45129;BME280;35512;56.312;101.728;2023-02-11T12:14:45;98116.72;;;-15.72;79.00
45129;BME280;35512;56.312;101.728;2023-02-11T12:20:10;98119.28;;;-15.80;78.56
45129;BME280;35512;56.312;101.728;2023-02-11T12:25:56;98124.56;;;-15.90;78.65
45129;BME280;35512;56.312;101.728;2023-02-11T12:40:16;98130.53;;;-15.97;78.28
45129;BME280;35512;56.312;101.728;2023-02-11T12:54:29;98129.59;;;-16.14;78.59
45129;BME280;35512;56.312;101.728;2023-02-11T13:00:06;98143.78;;;-16.19;78.63
45129;BME280;35512;56.312;101.728;2023-02-11T13:02:47;98146.84;;;-16.23;78.40
45129;BME280;35512;56.312;101.728;2023-02-11T13:05:38;98149.41;;;-16.23;78.59
45129;BME280;35512;56.312;101.728;2023-02-11T13:10:58;98154.28;;;-16.20;78.42
45129;BME280;35512;56.312;101.728;2023-02-11T13:16:40;98159.16;;;-16.17;78.65
45129;BME280;35512;56.312;101.728;2023-02-11T13:22:16;98155.91;;;-16.19;78.42
45129;BME280;35512;56.312;101.728;2023-02-11T13:24:58;98155.25;;;-16.21;78.82
45129;BME280;35512;56.312;101.728;2023-02-11T13:30:30;98157.41;;;-16.17;78.97
45129;BME280;35512;56.312;101.728;2023-02-11T13:33:49;98166.50;;;-16.12;78.90
45129;BME280;35512;56.312;101.728;2023-02-11T13:38:27;98168.31;;;-16.05;78.98
45129;BME280;35512;56.312;101.728;2023-02-11T13:41:03;98170.31;;;-15.99;79.21
45129;BME280;35512;56.312;101.728;2023-02-11T13:43:34;98165.94;;;-15.98;79.13
45129;BME280;35512;56.312;101.728;2023-02-11T13:46:11;98170.00;;;-15.95;78.88
45129;BME280;35512;56.312;101.728;2023-02-11T13:48:49;98167.09;;;-15.92;79.15
45129;BME280;35512;56.312;101.728;2023-02-11T13:51:38;98176.72;;;-15.85;79.20
45129;BME280;35512;56.312;101.728;2023-02-11T13:54:18;98182.28;;;-15.79;79.36
45129;BME280;35512;56.312;101.728;2023-02-11T14:00:01;98181.75;;;-15.83;78.77
45129;BME280;35512;56.312;101.728;2023-02-11T14:02:36;98179.50;;;-15.78;79.00
45129;BME280;35512;56.312;101.728;2023-02-11T14:05:28;98178.69;;;-15.78;79.00
45129;BME280;35512;56.312;101.728;2023-02-11T14:08:21;98181.13;;;-15.77;79.00
45129;BME280;35512;56.312;101.728;2023-02-11T14:11:43;98182.09;;;-15.78;79.01
45129;BME280;35512;56.312;101.728;2023-02-11T14:16:33;98186.94;;;-15.75;79.27
45129;BME280;35512;56.312;101.728;2023-02-11T14:19:07;98181.34;;;-15.70;79.21
45129;BME280;35512;56.312;101.728;2023-02-11T14:21:41;98180.72;;;-15.64;79.31
45129;BME280;35512;56.312;101.728;2023-02-11T14:30:19;98167.50;;;-15.53;79.27
45129;BME280;35512;56.312;101.728;2023-02-11T14:41:45;98169.81;;;-15.50;79.15
45129;BME280;35512;56.312;101.728;2023-02-11T14:44:34;98172.88;;;-15.46;79.47
45129;BME280;35512;56.312;101.728;2023-02-11T14:47:03;98162.31;;;-15.53;79.04
45129;BME280;35512;56.312;101.728;2023-02-11T14:49:36;98173.50;;;-15.52;79.07
45129;BME280;35512;56.312;101.728;2023-02-11T14:52:30;98178.03;;;-15.54;79.24
45129;BME280;35512;56.312;101.728;2023-02-11T14:55:18;98186.91;;;-15.57;79.21
45129;BME280;35512;56.312;101.728;2023-02-11T14:58:22;98177.81;;;-15.61;79.07
45129;BME280;35512;56.312;101.728;2023-02-11T15:08:33;98191.69;;;-15.44;79.63
45129;BME280;35512;56.312;101.728;2023-02-11T15:11:09;98188.00;;;-15.41;79.25
45129;BME280;35512;56.312;101.728;2023-02-11T15:13:39;98154.50;;;-15.61;79.20
45129;BME280;35512;56.312;101.728;2023-02-11T15:16:20;98177.72;;;-15.51;78.89
45129;BME280;35512;56.312;101.728;2023-02-11T15:18:53;98177.69;;;-15.59;79.01
45129;BME280;35512;56.312;101.728;2023-02-11T15:21:25;98173.25;;;-15.67;79.09
45129;BME280;35512;56.312;101.728;2023-02-11T15:24:17;98180.88;;;-15.66;78.84
45129;BME280;35512;56.312;101.728;2023-02-11T15:26:59;98177.53;;;-15.76;78.98
45129;BME280;35512;56.312;101.728;2023-02-11T15:29:37;98171.53;;;-15.85;79.06
45129;BME280;35512;56.312;101.728;2023-02-11T15:32:19;98184.66;;;-15.86;78.88
45129;BME280;35512;56.312;101.728;2023-02-11T15:34:51;98182.00;;;-15.94;79.06
45129;BME280;35512;56.312;101.728;2023-02-11T15:37:27;98183.56;;;-16.02;78.97
45129;BME280;35512;56.312;101.728;2023-02-11T15:40:09;98185.25;;;-16.10;79.14
45129;BME280;35512;56.312;101.728;2023-02-11T15:42:39;98173.66;;;-16.24;78.98
45129;BME280;35512;56.312;101.728;2023-02-11T15:45:25;98180.91;;;-16.28;78.98
45129;BME280;35512;56.312;101.728;2023-02-11T15:50:30;98176.53;;;-16.45;78.81
45129;BME280;35512;56.312;101.728;2023-02-11T15:53:04;98182.28;;;-16.52;78.75
45129;BME280;35512;56.312;101.728;2023-02-11T15:55:41;98178.28;;;-16.64;78.61